Northmore Heights, Illinois
Current Conditions -  °F | °C
As of 2:55 PM on Saturday 20 Dec 2014 (Local Time) from K1H2 Reporting Station
Scattered Clouds Scattered Clouds  
Wind Chill: 33°   Ceiling: Unl
Heat Index: 38°   Visibility: 10mi
Dew Point: 26°   Wind: 6mph
Humidity: 61%   Direction: 90°E
Pressure: 30.27"   Gusts: NA
Location:  39.1183°N, 88.6059°W
Report Text: K1H2 202055Z AUTO 09005KT 10SM SCT065 03/M04 A3027 RMK AO2 T00321036
Loading
Personal Weather Stations






























Interactive Weather Map New forecast layout! Learn more

10-Day Weather Forecast

Advertisements
Track Severe Weather on mobile